Hlavní strana
METAR-TAF:

METAR-TAF

Letiště :

Ansbach, Německo

zeměpisná šířka: 49-19N, zeměpisná délka: 010-38E, výška: 467 m

Aktuální stav počasí

Zpráva byla vytvořena před 30 minutami, v 18:56 UTC
Východoseverovýchodní vítr 4 kt
Teplota 22°C
Vlhkost vzduchu 65%
Tlak 1018 hPa
Viditelnost 10 km a více
Jasno

METAR: ETEB 271856Z AUTO 06004KT 9999 CLR 22/15 A3006 RMK AO2 SLP173 T02230151 $

Čas: 21:26 (19:26 UTC)


TAF: chybějící

Stav a předpovědi počasí z více než 4 000 letišť (zprávy METAR a TAF).

Červené a žluté tečky na mapě představují dostupné meteorologické stanice.

Když kurzor umístíte na tečku, zobrazí se název stanice.

Pak kliknutím zobrazíte stav a předpověď počasí.

Chcete-li změnit mapu, kliknutím na zelené tlačítko se znaménkem +mapu přiblížíte, kliknutím na zelené tlačítko se znaménkem – mapu oddálíte a kliknutím na zelené šipky přejdete na sousední mapy.


METAR-TAF: